createdAt,value
2023-04-18T00:00:17.484Z,7.1862
2023-04-18T00:01:18.111Z,7.1739
2023-04-18T00:02:19.067Z,7.1747
2023-04-18T00:03:19.312Z,7.1792
2023-04-18T00:04:21.362Z,7.1818
2023-04-18T00:05:22.206Z,7.1970
2023-04-18T00:06:23.030Z,7.1984
2023-04-18T00:07:23.928Z,7.1997
2023-04-18T00:08:24.270Z,7.2115
2023-04-18T00:09:25.142Z,7.2377
2023-04-18T00:10:25.793Z,7.2684
2023-04-18T00:11:26.466Z,7.2964
2023-04-18T00:12:27.043Z,7.3158
2023-04-18T00:13:27.632Z,7.3323
2023-04-18T00:14:27.666Z,7.3525
2023-04-18T00:15:28.487Z,7.3812
2023-04-18T00:16:29.165Z,7.3895
2023-04-18T00:17:30.044Z,7.4034
2023-04-18T00:18:30.556Z,7.4134
2023-04-18T00:19:31.077Z,7.4207
2023-04-18T00:20:31.643Z,7.4332
2023-04-18T00:21:32.175Z,7.4362
2023-04-18T00:22:32.802Z,7.4334
2023-04-18T00:23:33.779Z,7.4543
2023-04-18T00:24:34.800Z,7.4615
2023-04-18T00:25:35.404Z,7.4752
2023-04-18T00:26:36.041Z,7.4841
2023-04-18T00:27:36.436Z,7.4983
2023-04-18T00:28:37.133Z,7.4941
2023-04-18T00:29:37.516Z,7.4966
2023-04-18T00:30:38.121Z,7.4934
2023-04-18T00:31:39.318Z,7.5067
2023-04-18T00:32:39.911Z,7.5139
2023-04-18T00:33:40.637Z,7.5184
2023-04-18T00:34:41.214Z,7.5159
2023-04-18T00:35:41.699Z,7.5266
2023-04-18T00:36:42.260Z,7.5423
2023-04-18T00:37:42.753Z,7.5410
2023-04-18T00:38:43.298Z,7.5323
2023-04-18T00:39:43.814Z,7.5310
2023-04-18T00:40:44.198Z,7.5361
2023-04-18T00:41:44.807Z,7.5392
2023-04-18T00:42:45.378Z,7.5341
2023-04-18T00:43:45.794Z,7.5296
2023-04-18T00:44:46.828Z,7.5295
2023-04-18T00:45:47.215Z,7.5461
2023-04-18T00:46:48.415Z,7.5482
2023-04-18T00:47:49.289Z,7.5461
2023-04-18T00:48:49.996Z,7.5474
2023-04-18T00:49:50.881Z,7.5401
2023-04-18T00:50:51.549Z,7.5621
2023-04-18T00:51:52.029Z,7.5528
2023-04-18T00:52:52.636Z,7.5485
2023-04-18T00:53:53.106Z,7.5517
2023-04-18T00:54:54.227Z,7.5628
2023-04-18T00:55:54.856Z,7.5604
2023-04-18T00:56:55.330Z,7.5550
2023-04-18T00:57:55.883Z,7.5583
2023-04-18T00:58:56.453Z,7.5603
2023-04-18T00:59:56.843Z,7.5657
2023-04-18T01:00:57.435Z,7.5616
2023-04-18T01:01:58.110Z,7.5661
2023-04-18T01:02:58.362Z,7.5787
2023-04-18T01:03:58.449Z,7.5860
2023-04-18T01:04:59.164Z,7.5816
2023-04-18T01:05:59.850Z,7.5802
2023-04-18T01:07:00.416Z,7.5655
2023-04-18T01:08:00.987Z,7.5666
2023-04-18T01:09:01.727Z,7.5609
2023-04-18T01:10:02.471Z,7.5539
2023-04-18T01:11:02.850Z,7.5590
2023-04-18T01:12:03.424Z,7.5543
2023-04-18T01:13:03.849Z,7.5587
2023-04-18T01:14:04.354Z,7.5580
2023-04-18T01:15:04.885Z,7.5641
2023-04-18T01:16:05.503Z,7.5506
2023-04-18T01:17:06.685Z,7.5558
2023-04-18T01:18:07.452Z,7.5677
2023-04-18T01:19:07.907Z,7.5713
2023-04-18T01:20:08.566Z,7.5645
2023-04-18T01:21:09.306Z,7.5715
2023-04-18T01:22:09.901Z,7.5664
2023-04-18T01:23:10.461Z,7.5683
2023-04-18T01:24:11.154Z,7.5723
2023-04-18T01:25:11.537Z,7.5827
2023-04-18T01:26:12.217Z,7.5874
2023-04-18T01:27:12.798Z,7.5890
2023-04-18T01:28:13.393Z,7.5808
2023-04-18T01:29:13.762Z,7.5949
2023-04-18T01:30:14.823Z,7.5855
2023-04-18T01:31:15.498Z,7.5927
2023-04-18T01:32:16.102Z,7.5948
2023-04-18T01:33:17.039Z,7.5946
2023-04-18T01:34:17.785Z,7.5988
2023-04-18T01:35:18.297Z,7.5966
2023-04-18T01:36:18.853Z,7.5965
2023-04-18T01:37:19.263Z,7.5808
2023-04-18T01:38:19.751Z,7.5850
2023-04-18T01:39:20.452Z,7.5841
2023-04-18T01:40:20.876Z,7.5817
2023-04-18T01:41:21.477Z,7.5871
2023-04-18T01:42:22.411Z,7.5885
2023-04-18T01:43:22.849Z,7.5814
2023-04-18T01:44:23.448Z,7.5922
2023-04-18T01:45:23.894Z,7.6019
2023-04-18T01:46:24.678Z,7.6040
2023-04-18T01:47:25.704Z,7.6115
2023-04-18T01:48:26.235Z,7.6104
2023-04-18T01:49:26.869Z,7.6102
2023-04-18T01:50:27.439Z,7.6106
2023-04-18T01:51:27.864Z,7.6124
2023-04-18T01:52:28.612Z,7.6053
2023-04-18T01:53:28.941Z,7.6105
2023-04-18T01:54:29.963Z,7.6112
2023-04-18T01:55:30.510Z,7.5941
2023-04-18T01:56:30.941Z,7.5971
2023-04-18T01:57:31.684Z,7.5877
2023-04-18T01:58:32.328Z,7.5964
2023-04-18T01:59:32.645Z,7.5996
2023-04-18T02:00:33.259Z,7.5698
2023-04-18T02:01:33.913Z,7.5641
2023-04-18T02:02:35.033Z,7.5764
2023-04-18T02:03:35.583Z,7.5859
2023-04-18T02:04:35.452Z,7.5865
2023-04-18T02:05:36.002Z,7.5669
2023-04-18T02:06:36.559Z,7.5769
2023-04-18T02:07:37.117Z,7.5712
2023-04-18T02:08:37.766Z,7.5767
2023-04-18T02:09:38.195Z,7.5669
2023-04-18T02:10:38.698Z,7.5728
2023-04-18T02:11:39.333Z,7.5648
2023-04-18T02:12:39.748Z,7.5652
2023-04-18T02:13:40.315Z,7.5492
2023-04-18T02:14:40.862Z,7.5549
2023-04-18T02:15:41.204Z,7.5382
2023-04-18T02:16:42.132Z,7.5459
2023-04-18T02:17:42.829Z,7.5381
2023-04-18T02:18:43.539Z,7.5512
2023-04-18T02:19:44.177Z,7.5525
2023-04-18T02:20:44.785Z,7.5582
2023-04-18T02:21:45.335Z,7.5658
2023-04-18T02:22:45.904Z,7.5686
2023-04-18T02:23:46.409Z,7.5793
2023-04-18T02:24:47.230Z,7.5829
2023-04-18T02:25:47.730Z,7.5835
2023-04-18T02:26:48.484Z,7.5895
2023-04-18T02:27:49.214Z,7.6030
2023-04-18T02:28:49.989Z,7.5974
2023-04-18T02:29:50.637Z,7.6012
2023-04-18T02:30:51.590Z,7.5884
2023-04-18T02:31:52.278Z,7.5847
2023-04-18T02:32:53.465Z,7.5889
2023-04-18T02:33:53.957Z,7.5922
2023-04-18T02:34:54.756Z,7.5826
2023-04-18T02:35:55.358Z,7.5835
2023-04-18T02:36:55.815Z,7.5895
2023-04-18T02:37:56.433Z,7.5902
2023-04-18T02:38:56.981Z,7.5876
2023-04-18T02:39:57.377Z,7.5781
2023-04-18T02:40:58.040Z,7.5859
2023-04-18T02:41:58.415Z,7.5917
2023-04-18T02:42:58.990Z,7.6026
2023-04-18T02:43:59.633Z,7.5925
2023-04-18T02:45:00.117Z,7.6025
2023-04-18T02:46:00.873Z,7.5972
2023-04-18T02:47:01.689Z,7.5969
2023-04-18T02:48:02.679Z,7.5901
2023-04-18T02:49:03.556Z,7.5883
2023-04-18T02:50:04.155Z,7.6046
2023-04-18T02:51:04.679Z,7.5952
2023-04-18T02:52:05.301Z,7.5985
2023-04-18T02:53:05.736Z,7.5903
2023-04-18T02:54:06.288Z,7.5865
2023-04-18T02:55:06.897Z,7.5948
2023-04-18T02:56:07.414Z,7.5821
2023-04-18T02:57:08.134Z,7.5632
2023-04-18T02:58:08.744Z,7.5734
2023-04-18T02:59:09.283Z,7.5701
2023-04-18T03:00:09.883Z,7.5666
2023-04-18T03:01:10.381Z,7.5687
2023-04-18T03:02:11.336Z,7.5678
2023-04-18T03:03:11.368Z,7.5684
2023-04-18T03:04:12.325Z,7.5578
2023-04-18T03:05:12.705Z,7.5677
2023-04-18T03:06:13.388Z,7.5706
2023-04-18T03:07:13.766Z,7.5711
2023-04-18T03:08:14.560Z,7.5646
2023-04-18T03:09:14.939Z,7.5655
2023-04-18T03:10:15.542Z,7.5671
2023-04-18T03:11:16.087Z,7.5671
2023-04-18T03:12:16.522Z,7.5673
2023-04-18T03:13:17.108Z,7.5734
2023-04-18T03:14:17.736Z,7.5782
2023-04-18T03:15:18.122Z,7.5637
2023-04-18T03:16:18.986Z,7.5677
2023-04-18T03:17:19.744Z,7.5741
2023-04-18T03:18:20.321Z,7.5723
2023-04-18T03:19:21.059Z,7.5569
2023-04-18T03:20:21.547Z,7.5623
2023-04-18T03:21:22.144Z,7.5591
2023-04-18T03:22:22.813Z,7.5661
2023-04-18T03:23:23.314Z,7.5741
2023-04-18T03:24:23.819Z,7.5657
2023-04-18T03:25:24.183Z,7.5680
2023-04-18T03:26:24.710Z,7.5658
2023-04-18T03:27:25.258Z,7.5693
2023-04-18T03:28:25.776Z,7.5601
2023-04-18T03:29:26.409Z,7.5591
2023-04-18T03:30:27.074Z,7.5572
2023-04-18T03:31:27.767Z,7.5586
2023-04-18T03:32:28.658Z,7.5472
2023-04-18T03:33:29.309Z,7.5477
2023-04-18T03:34:29.751Z,7.5397
2023-04-18T03:35:30.430Z,7.5421
2023-04-18T03:36:30.987Z,7.5502
2023-04-18T03:37:31.523Z,7.5442
2023-04-18T03:38:32.107Z,7.5478
2023-04-18T03:39:32.545Z,7.5498
2023-04-18T03:40:33.141Z,7.5680
2023-04-18T03:41:33.682Z,7.5533
2023-04-18T03:42:34.336Z,7.5621
2023-04-18T03:43:34.991Z,7.5696
2023-04-18T03:44:36.245Z,7.5832
2023-04-18T03:45:36.825Z,7.5708
2023-04-18T03:46:38.085Z,7.5601
2023-04-18T03:47:38.997Z,7.5609
2023-04-18T03:48:40.396Z,7.5559
2023-04-18T03:50:40.259Z,7.5723
2023-04-18T03:51:40.971Z,7.5641
2023-04-18T03:52:41.371Z,7.5452
2023-04-18T03:53:41.734Z,7.5569
2023-04-18T03:54:42.886Z,7.5662
2023-04-18T03:55:43.294Z,7.5648
2023-04-18T03:56:43.978Z,7.5553
2023-04-18T03:57:44.478Z,7.5554
2023-04-18T03:58:44.906Z,7.5530
2023-04-18T03:59:47.321Z,7.5658
2023-04-18T04:00:45.772Z,7.5718
2023-04-18T04:01:46.290Z,7.5687
2023-04-18T04:02:46.812Z,7.5760
2023-04-18T04:03:47.443Z,7.5749
2023-04-18T04:04:47.505Z,7.5805
2023-04-18T04:05:48.245Z,7.5847
2023-04-18T04:06:48.945Z,7.5782
2023-04-18T04:07:49.589Z,7.5820
2023-04-18T04:08:50.145Z,7.5756
2023-04-18T04:09:50.761Z,7.5784
2023-04-18T04:10:51.184Z,7.5677
2023-04-18T04:11:51.674Z,7.5796
2023-04-18T04:12:52.282Z,7.5783
2023-04-18T04:13:52.720Z,7.5868
2023-04-18T04:14:53.930Z,7.5858
2023-04-18T04:15:54.487Z,7.5889
2023-04-18T04:16:55.307Z,7.5883
2023-04-18T04:17:56.187Z,7.5922
2023-04-18T04:18:56.949Z,7.6019
2023-04-18T04:19:57.359Z,7.5912
2023-04-18T04:20:57.939Z,7.5926
2023-04-18T04:21:58.346Z,7.5789
2023-04-18T04:22:58.948Z,7.5802
2023-04-18T04:23:59.588Z,7.5807
2023-04-18T04:25:00.304Z,7.5707
2023-04-18T04:26:00.912Z,7.5652
2023-04-18T04:27:01.557Z,7.5625
2023-04-18T04:28:02.532Z,7.5490
2023-04-18T04:29:03.201Z,7.5545
2023-04-18T04:30:03.931Z,7.5364
2023-04-18T04:31:05.025Z,7.5358
2023-04-18T04:32:05.159Z,7.5430
2023-04-18T04:33:06.129Z,7.5444
2023-04-18T04:36:07.374Z,7.5338
2023-04-18T04:37:08.144Z,7.5317
2023-04-18T04:38:08.718Z,7.5205
2023-04-18T04:39:09.454Z,7.5232
2023-04-18T04:40:10.669Z,7.5201
2023-04-18T04:41:11.593Z,7.5152
2023-04-18T04:42:12.804Z,7.5191
2023-04-18T04:43:13.888Z,7.5131
2023-04-18T04:44:14.851Z,7.5043
2023-04-18T04:45:15.429Z,7.5202
2023-04-18T04:46:16.210Z,7.5036
2023-04-18T04:47:16.801Z,7.5088
2023-04-18T04:48:17.034Z,7.5037
2023-04-18T04:49:17.935Z,7.5176
2023-04-18T04:50:18.869Z,7.5244
2023-04-18T04:51:19.674Z,7.5286
2023-04-18T04:52:20.373Z,7.5239
2023-04-18T04:53:21.000Z,7.5206
2023-04-18T04:54:21.519Z,7.5162
2023-04-18T04:55:21.985Z,7.5108
2023-04-18T04:56:22.932Z,7.5113
2023-04-18T04:57:23.615Z,7.5193
2023-04-18T04:58:24.155Z,7.5257
2023-04-18T04:59:24.792Z,7.5288
2023-04-18T05:00:25.606Z,7.5401
2023-04-18T05:01:26.423Z,7.5495
2023-04-18T05:02:26.857Z,7.5374
2023-04-18T05:03:28.747Z,7.5296
2023-04-18T05:04:29.097Z,7.5337
2023-04-18T05:05:30.202Z,7.5380
2023-04-18T05:06:30.846Z,7.5423
2023-04-18T05:07:31.836Z,7.5397
2023-04-18T05:08:32.683Z,7.5366
2023-04-18T05:09:33.267Z,7.5359
2023-04-18T05:10:33.901Z,7.5394
2023-04-18T05:11:34.585Z,7.5355
2023-04-18T05:12:35.184Z,7.5391
2023-04-18T05:13:36.160Z,7.5411
2023-04-18T05:14:36.553Z,7.5433
2023-04-18T05:15:37.463Z,7.5426
2023-04-18T05:16:37.709Z,7.5495
2023-04-18T05:17:38.745Z,7.5471
2023-04-18T05:18:39.478Z,7.5540
2023-04-18T05:19:40.340Z,7.5469
2023-04-18T05:20:41.013Z,7.5612
2023-04-18T05:21:41.731Z,7.5647
2023-04-18T05:22:43.033Z,7.5798
2023-04-18T05:23:42.859Z,7.5702
2023-04-18T05:24:43.056Z,7.5807
2023-04-18T05:25:43.713Z,7.5802
2023-04-18T05:26:44.697Z,7.5860
2023-04-18T05:27:45.946Z,7.5786
2023-04-18T05:28:46.802Z,7.5846
2023-04-18T05:29:47.579Z,7.5673
2023-04-18T05:30:48.912Z,7.5801
2023-04-18T05:31:49.906Z,7.5880
2023-04-18T05:32:50.312Z,7.6046
2023-04-18T05:33:50.334Z,7.6123
2023-04-18T05:34:51.460Z,7.6170
2023-04-18T05:35:53.496Z,7.6216
2023-04-18T05:36:53.668Z,7.6318
2023-04-18T05:37:54.476Z,7.6380
2023-04-18T05:38:55.371Z,7.6437
2023-04-18T05:39:55.938Z,7.6471
2023-04-18T05:40:56.290Z,7.6738
2023-04-18T05:41:56.724Z,7.6809
2023-04-18T05:42:57.911Z,7.6893
2023-04-18T05:44:05.261Z,7.6932
2023-04-18T05:45:02.438Z,7.6893
2023-04-18T05:48:04.054Z,7.6862
2023-04-18T05:49:04.813Z,7.7039
2023-04-18T05:50:05.567Z,7.7091
2023-04-18T05:51:06.487Z,7.7181
2023-04-18T05:52:07.678Z,7.7249
2023-04-18T05:53:08.531Z,7.7393
2023-04-18T05:54:09.151Z,7.7462
2023-04-18T05:55:09.147Z,7.7498
2023-04-18T05:56:09.647Z,7.7591
2023-04-18T05:57:10.696Z,7.7625
2023-04-18T05:58:11.356Z,7.7711
2023-04-18T05:59:11.957Z,7.7827
2023-04-18T06:00:12.666Z,7.7834
2023-04-18T06:01:13.889Z,7.7994
2023-04-18T06:02:14.722Z,7.8103
2023-04-18T06:03:16.047Z,7.8274
2023-04-18T06:04:16.809Z,7.8409
2023-04-18T06:05:17.253Z,7.8443
2023-04-18T06:06:17.934Z,7.8622
2023-04-18T06:07:18.386Z,7.8745
2023-04-18T06:08:19.212Z,7.8923
2023-04-18T06:09:19.852Z,7.9030
2023-04-18T06:10:20.556Z,7.9034
2023-04-18T06:11:21.403Z,7.9186
2023-04-18T06:12:22.324Z,7.9171
2023-04-18T06:13:22.993Z,7.9102
2023-04-18T06:14:23.828Z,7.9209
2023-04-18T06:15:25.050Z,7.9219
2023-04-18T06:16:25.974Z,7.9375
2023-04-18T06:17:25.972Z,7.9513
2023-04-18T06:18:26.915Z,7.9682
2023-04-18T06:19:27.100Z,7.9949
2023-04-18T06:20:28.323Z,7.9898
2023-04-18T06:21:28.897Z,8.0109
2023-04-18T06:22:29.982Z,8.0305
2023-04-18T06:23:30.609Z,8.0488
2023-04-18T06:24:31.357Z,8.0775
2023-04-18T06:25:31.005Z,8.0722
2023-04-18T06:26:31.502Z,8.0755
2023-04-18T06:27:34.535Z,8.0749
2023-04-18T06:28:35.388Z,8.0788
2023-04-18T06:29:36.855Z,8.0849
2023-04-18T06:30:36.220Z,8.1009
2023-04-18T06:31:37.082Z,8.1400
2023-04-18T06:32:37.932Z,8.1464
2023-04-18T06:33:38.618Z,8.1549
2023-04-18T06:34:39.866Z,8.1913
2023-04-18T06:35:40.505Z,8.2060
2023-04-18T06:36:41.153Z,8.2090
2023-04-18T06:37:41.389Z,8.2123
2023-04-18T06:38:42.077Z,8.2290
2023-04-18T06:39:42.772Z,8.2153
2023-04-18T06:40:43.518Z,8.2238
2023-04-18T06:41:44.265Z,8.2426
2023-04-18T06:42:44.756Z,8.2335
2023-04-18T06:44:01.572Z,8.2069
2023-04-18T06:44:46.870Z,8.2136
2023-04-18T06:45:47.602Z,8.2200
2023-04-18T06:46:47.677Z,8.2450
2023-04-18T06:47:48.725Z,8.2429
2023-04-18T06:48:50.434Z,8.2674
2023-04-18T06:49:49.849Z,8.2249
2023-04-18T06:50:50.594Z,8.2047
2023-04-18T06:51:51.220Z,8.2111
2023-04-18T06:52:51.798Z,8.2285
2023-04-18T06:53:52.578Z,8.2226
2023-04-18T06:54:53.379Z,8.2046
2023-04-18T06:55:54.132Z,8.2423
2023-04-18T06:56:55.303Z,8.2378
2023-04-18T06:57:56.516Z,8.2701
2023-04-18T06:58:57.321Z,8.2786
2023-04-18T06:59:58.553Z,8.2586
2023-04-18T07:00:59.191Z,8.2939
2023-04-18T07:02:00.129Z,8.2703
2023-04-18T07:03:00.733Z,8.2886
2023-04-18T07:04:00.928Z,8.2845
2023-04-18T07:05:01.336Z,8.2595
2023-04-18T07:06:01.887Z,8.2458
2023-04-18T07:07:02.691Z,8.2871
2023-04-18T07:08:03.351Z,8.3013
2023-04-18T07:09:04.107Z,8.3113
2023-04-18T07:10:04.679Z,8.3679
2023-04-18T07:11:04.699Z,8.3879
2023-04-18T07:12:05.200Z,8.4286
2023-04-18T07:13:05.751Z,8.4623
2023-04-18T07:14:06.656Z,8.4887
2023-04-18T07:15:07.717Z,8.5244
2023-04-18T07:16:08.377Z,8.5268
2023-04-18T07:17:09.054Z,8.5767
2023-04-18T07:18:10.036Z,8.6264
2023-04-18T07:19:10.939Z,8.6140
2023-04-18T07:20:12.987Z,8.6575
2023-04-18T07:21:12.436Z,8.7271
2023-04-18T07:22:13.100Z,8.7007
2023-04-18T07:23:13.597Z,8.7260
2023-04-18T07:24:14.509Z,8.8105
2023-04-18T07:25:15.385Z,8.8042
2023-04-18T07:26:15.619Z,8.7851
2023-04-18T07:27:16.353Z,8.8414
2023-04-18T07:28:17.208Z,8.8217
2023-04-18T07:29:17.675Z,8.9272
2023-04-18T07:30:18.470Z,8.9029
2023-04-18T07:31:19.331Z,8.9310
2023-04-18T07:32:20.080Z,8.9333
2023-04-18T07:33:20.895Z,9.0038
2023-04-18T07:34:21.497Z,9.0394
2023-04-18T07:35:22.119Z,8.9921
2023-04-18T07:36:22.889Z,9.0151
2023-04-18T07:37:23.549Z,9.0639
2023-04-18T07:38:24.191Z,9.0662
2023-04-18T07:39:24.818Z,8.9943
2023-04-18T07:40:25.305Z,8.9943
2023-04-18T07:41:26.032Z,8.9945
2023-04-18T07:42:26.551Z,8.9954
2023-04-18T07:43:26.689Z,8.9814
2023-04-18T07:44:26.864Z,8.9829
2023-04-18T07:45:27.257Z,8.9730
2023-04-18T07:46:27.606Z,9.0030
2023-04-18T07:47:32.242Z,8.9687
2023-04-18T07:48:31.432Z,8.8800
2023-04-18T07:49:32.530Z,8.9726
2023-04-18T07:50:33.251Z,9.0015
2023-04-18T07:51:33.673Z,9.0017
2023-04-18T07:52:34.628Z,9.0228
2023-04-18T07:53:35.275Z,9.1188
2023-04-18T07:54:35.728Z,9.1955
2023-04-18T07:55:36.322Z,9.1865
2023-04-18T07:56:36.785Z,9.1431
2023-04-18T07:57:37.478Z,9.1874
2023-04-18T07:58:38.148Z,9.3079
2023-04-18T07:59:39.316Z,9.3611
2023-04-18T08:00:39.377Z,9.4279
2023-04-18T08:01:39.996Z,9.4807
2023-04-18T08:02:41.328Z,9.5766
2023-04-18T08:03:41.267Z,9.6842
2023-04-18T08:04:41.884Z,9.7708
2023-04-18T08:05:43.021Z,9.8350
2023-04-18T08:06:43.849Z,9.8445
2023-04-18T08:07:44.798Z,9.9046
2023-04-18T08:08:45.609Z,9.9159
2023-04-18T08:09:46.771Z,10.0662
2023-04-18T08:10:47.185Z,10.0847
2023-04-18T08:11:47.874Z,10.0823
2023-04-18T08:12:48.606Z,10.1418
2023-04-18T08:13:49.318Z,10.2322
2023-04-18T08:14:50.235Z,10.0361
2023-04-18T08:15:50.966Z,10.0937
2023-04-18T08:16:51.804Z,10.1728
2023-04-18T08:17:52.388Z,10.1761
2023-04-18T08:18:53.093Z,10.2321
2023-04-18T08:19:53.703Z,10.1616
2023-04-18T08:20:54.198Z,10.2119
2023-04-18T08:21:54.887Z,10.2323
2023-04-18T08:23:06.135Z,10.2927
2023-04-18T08:24:01.983Z,10.2982
2023-04-18T08:25:05.547Z,10.2136
2023-04-18T08:26:03.792Z,10.2156
2023-04-18T08:27:04.186Z,10.1439
2023-04-18T08:28:04.882Z,10.1797
2023-04-18T08:29:05.046Z,10.0589
2023-04-18T08:30:05.868Z,9.8510
2023-04-18T08:31:06.580Z,9.7855
2023-04-18T08:32:07.484Z,9.8385
2023-04-18T08:33:08.635Z,9.7854
2023-04-18T08:34:09.271Z,9.7579
2023-04-18T08:35:09.938Z,9.7007
2023-04-18T08:36:10.559Z,9.6867
2023-04-18T08:37:11.077Z,9.7378
2023-04-18T08:38:11.524Z,9.7946
2023-04-18T08:39:12.212Z,9.9057
2023-04-18T08:40:13.283Z,9.9740
2023-04-18T08:41:13.773Z,10.0183
2023-04-18T08:42:14.485Z,10.0548
2023-04-18T08:43:14.994Z,10.1088
2023-04-18T08:44:15.741Z,10.0357
2023-04-18T08:45:16.723Z,10.0599
2023-04-18T08:46:16.973Z,10.1910
2023-04-18T08:47:18.050Z,10.2548
2023-04-18T08:48:19.102Z,10.3973
2023-04-18T08:49:20.173Z,10.3660
2023-04-18T08:50:20.375Z,10.4301
2023-04-18T08:51:20.450Z,10.4849
2023-04-18T08:52:21.023Z,10.4805
2023-04-18T08:53:21.936Z,10.5292
2023-04-18T08:54:22.483Z,10.3735
2023-04-18T08:55:23.357Z,10.3805
2023-04-18T08:56:23.959Z,10.4275
2023-04-18T08:57:24.502Z,10.5672
2023-04-18T08:58:25.409Z,10.4358
2023-04-18T08:59:26.501Z,10.3894
2023-04-18T09:00:27.587Z,10.4700
2023-04-18T09:01:28.382Z,10.4703
2023-04-18T09:02:29.345Z,10.4621
2023-04-18T09:03:29.938Z,10.4795
2023-04-18T09:04:30.826Z,10.3029
2023-04-18T09:05:32.110Z,10.3531
2023-04-18T09:06:32.238Z,10.3353
2023-04-18T09:07:32.953Z,10.3402
2023-04-18T09:08:34.221Z,10.3669
2023-04-18T09:09:35.008Z,10.4286
2023-04-18T09:10:36.787Z,10.4070
2023-04-18T09:11:36.548Z,10.4463
2023-04-18T09:12:37.255Z,10.4916
2023-04-18T09:13:38.439Z,10.6177
2023-04-18T09:14:38.916Z,10.6473
2023-04-18T09:15:39.631Z,10.7127
2023-04-18T09:16:40.783Z,10.7970
2023-04-18T09:17:41.597Z,10.8232
2023-04-18T09:18:42.348Z,10.8878
2023-04-18T09:19:42.752Z,10.9776
2023-04-18T09:20:43.355Z,10.9982
2023-04-18T09:21:44.008Z,11.0774
2023-04-18T09:22:44.844Z,10.9871
2023-04-18T09:23:45.546Z,10.9167
2023-04-18T09:24:46.796Z,10.9168
2023-04-18T09:25:47.797Z,10.9368
2023-04-18T09:26:48.547Z,11.0326
2023-04-18T09:27:48.912Z,11.1001
2023-04-18T09:28:51.219Z,11.1491
2023-04-18T09:29:50.129Z,11.1722
2023-04-18T09:30:50.747Z,11.2210
2023-04-18T09:31:51.693Z,11.2056
2023-04-18T09:32:52.227Z,11.2692
2023-04-18T09:33:53.221Z,11.2353
2023-04-18T09:34:53.908Z,11.2809
2023-04-18T09:35:54.850Z,11.2655
2023-04-18T09:36:55.805Z,11.1174
2023-04-18T09:37:56.857Z,10.8655
2023-04-18T09:38:57.529Z,10.8605
2023-04-18T09:39:58.302Z,10.8775
2023-04-18T09:40:59.080Z,10.8659
2023-04-18T09:41:59.414Z,10.9081
2023-04-18T09:43:00.180Z,11.0450
2023-04-18T09:44:00.682Z,11.1062
2023-04-18T09:45:01.373Z,11.2527
2023-04-18T09:46:02.424Z,11.2486
2023-04-18T09:47:03.195Z,11.2114
2023-04-18T09:48:03.916Z,11.2478
2023-04-18T09:49:04.614Z,11.2920
2023-04-18T09:50:05.922Z,11.2959
2023-04-18T09:51:06.446Z,11.0605
2023-04-18T09:52:07.079Z,11.0544
2023-04-18T09:53:07.477Z,11.0174
2023-04-18T09:54:08.462Z,11.1996
2023-04-18T09:55:08.718Z,11.2799
2023-04-18T09:56:09.408Z,11.3588
2023-04-18T09:57:10.353Z,11.4795
2023-04-18T09:58:10.899Z,11.6392
2023-04-18T09:59:11.590Z,11.5798
2023-04-18T10:00:12.406Z,11.4796
2023-04-18T10:01:12.494Z,11.5912
2023-04-18T10:02:13.761Z,11.5161
2023-04-18T10:03:14.846Z,11.6128
2023-04-18T10:04:15.725Z,11.6424
2023-04-18T10:05:17.244Z,11.5418
2023-04-18T10:06:16.407Z,11.6616
2023-04-18T10:07:17.025Z,11.7145
2023-04-18T10:08:17.592Z,11.6999
2023-04-18T10:09:18.014Z,11.6478
2023-04-18T10:10:18.644Z,11.7641
2023-04-18T10:11:20.320Z,11.7972
2023-04-18T10:12:19.890Z,12.0199
2023-04-18T10:13:20.641Z,12.0732
2023-04-18T10:14:21.836Z,12.2446
2023-04-18T10:15:22.476Z,12.3351
2023-04-18T10:16:23.459Z,12.1962
2023-04-18T10:17:23.481Z,12.2629
2023-04-18T10:18:24.609Z,12.0265
2023-04-18T10:19:24.534Z,12.0097
2023-04-18T10:20:25.101Z,12.0561
2023-04-18T10:21:25.639Z,12.1919
2023-04-18T10:22:26.218Z,12.2103
2023-04-18T10:23:28.095Z,12.1614
2023-04-18T10:24:27.512Z,12.1920
2023-04-18T10:25:28.045Z,12.1520
2023-04-18T10:26:28.693Z,12.1873
2023-04-18T10:27:29.346Z,12.1085
2023-04-18T10:28:29.840Z,12.1743
2023-04-18T10:29:30.805Z,12.1274
2023-04-18T10:30:31.218Z,12.0298
2023-04-18T10:31:32.250Z,12.1481
2023-04-18T10:32:32.902Z,12.0506
2023-04-18T10:33:33.669Z,11.8876
2023-04-18T10:34:33.463Z,11.9334
2023-04-18T10:35:33.486Z,11.7938
2023-04-18T10:36:34.972Z,11.8193
2023-04-18T10:38:34.758Z,11.6764
2023-04-18T10:39:35.326Z,11.7375
2023-04-18T10:40:36.093Z,11.8938
2023-04-18T10:41:36.048Z,12.0325
2023-04-18T10:43:00.314Z,11.8908
2023-04-18T10:44:00.553Z,11.7629
2023-04-18T10:45:01.093Z,11.7666
2023-04-18T10:46:01.754Z,11.9143
2023-04-18T10:47:02.680Z,12.0077
2023-04-18T10:48:03.062Z,12.1712
2023-04-18T10:49:03.219Z,12.1530
2023-04-18T10:50:08.431Z,12.1466
2023-04-18T10:51:09.113Z,12.1411
2023-04-18T10:52:11.766Z,12.0840
2023-04-18T10:53:10.501Z,12.1832
2023-04-18T10:54:11.030Z,12.2650
2023-04-18T10:55:12.266Z,12.3588
2023-04-18T10:56:12.938Z,12.3158
2023-04-18T10:57:13.500Z,12.1774
2023-04-18T10:58:14.177Z,12.0888
2023-04-18T10:59:14.720Z,12.1306
2023-04-18T11:00:15.336Z,12.3114
2023-04-18T11:01:16.508Z,12.3650
2023-04-18T11:02:17.603Z,12.6091
2023-04-18T11:03:17.709Z,12.7600
2023-04-18T11:04:18.092Z,12.8408
2023-04-18T11:05:17.953Z,13.0208
2023-04-18T11:06:18.691Z,13.0107
2023-04-18T11:07:19.181Z,13.0407
2023-04-18T11:08:19.848Z,12.8272
2023-04-18T11:09:20.429Z,12.6655
2023-04-18T11:10:21.025Z,12.6170
2023-04-18T11:11:22.244Z,12.4837
2023-04-18T11:12:22.776Z,12.5094
2023-04-18T11:13:22.822Z,12.2288
2023-04-18T11:14:23.601Z,12.1076
2023-04-18T11:15:24.430Z,12.0580
2023-04-18T11:16:25.177Z,12.2056
2023-04-18T11:17:26.241Z,12.3416
2023-04-18T11:18:26.283Z,12.4664
2023-04-18T11:19:27.093Z,12.5105
2023-04-18T11:20:28.255Z,12.4431
2023-04-18T11:21:30.463Z,12.6013
2023-04-18T11:22:29.087Z,12.8974
2023-04-18T11:23:30.062Z,12.9523
2023-04-18T11:24:30.015Z,13.0333
2023-04-18T11:25:30.710Z,13.0802
2023-04-18T11:26:31.384Z,12.9154
2023-04-18T11:27:31.585Z,12.8314
2023-04-18T11:28:32.468Z,12.8324
2023-04-18T11:29:33.174Z,12.9160
2023-04-18T11:30:33.957Z,12.8350
2023-04-18T11:31:34.962Z,12.6828
2023-04-18T11:32:35.011Z,12.5496
2023-04-18T11:33:35.795Z,12.4950
2023-04-18T11:34:36.541Z,12.5205
2023-04-18T11:35:37.296Z,12.6249
2023-04-18T11:36:37.735Z,12.7999
2023-04-18T11:37:38.487Z,12.9241
2023-04-18T11:38:39.288Z,13.1262
2023-04-18T11:39:39.850Z,13.2030
2023-04-18T11:40:40.650Z,13.3088
2023-04-18T11:41:41.057Z,13.2451
2023-04-18T11:42:41.810Z,13.3619
2023-04-18T11:43:42.530Z,13.8787
2023-04-18T11:44:43.329Z,13.9859
2023-04-18T11:45:43.967Z,13.8470
2023-04-18T11:46:45.035Z,13.8264
2023-04-18T11:47:45.606Z,14.0110
2023-04-18T11:48:46.248Z,14.1546
2023-04-18T11:49:47.362Z,14.5098
2023-04-18T11:50:48.629Z,14.6062
2023-04-18T11:51:49.880Z,14.7326
2023-04-18T11:52:51.139Z,14.5374
2023-04-18T11:53:52.225Z,14.3117
2023-04-18T11:54:52.823Z,14.3827
2023-04-18T11:55:53.394Z,14.3943
2023-04-18T11:56:54.297Z,14.8774
2023-04-18T11:57:55.005Z,14.7882
2023-04-18T11:58:56.171Z,14.9126
2023-04-18T11:59:57.043Z,15.4161
2023-04-18T12:00:57.256Z,14.8634
2023-04-18T12:01:58.904Z,14.7649
2023-04-18T12:02:58.426Z,14.5303
2023-04-18T12:05:59.406Z,14.7233
2023-04-18T12:06:59.531Z,14.7503
2023-04-18T12:08:00.502Z,15.0041
2023-04-18T12:09:00.940Z,15.1226
2023-04-18T12:10:01.838Z,15.1434
2023-04-18T12:11:02.902Z,15.4801
2023-04-18T12:12:03.693Z,15.4552
2023-04-18T12:13:04.633Z,15.3410
2023-04-18T12:14:05.882Z,15.2670
2023-04-18T12:15:06.410Z,14.8847
2023-04-18T12:16:06.210Z,14.8730
2023-04-18T12:17:06.987Z,14.8284
2023-04-18T12:18:07.100Z,14.8013
2023-04-18T12:19:07.902Z,14.5518
2023-04-18T12:20:09.051Z,14.9038
2023-04-18T12:21:09.542Z,14.7893
2023-04-18T12:22:09.692Z,14.8108
2023-04-18T12:23:10.337Z,15.1520
2023-04-18T12:24:12.070Z,15.2842
2023-04-18T12:25:13.089Z,15.2300
2023-04-18T12:26:13.207Z,15.0198
2023-04-18T12:27:14.460Z,15.3502
2023-04-18T12:28:15.089Z,15.8325
2023-04-18T12:29:15.497Z,16.5656
2023-04-18T12:30:16.283Z,16.7638
2023-04-18T12:31:17.498Z,16.6868
2023-04-18T12:32:18.287Z,17.1150
2023-04-18T12:33:19.372Z,17.3925
2023-04-18T12:35:19.679Z,17.9507
2023-04-18T12:36:20.232Z,18.9446
2023-04-18T12:37:21.015Z,19.0535
2023-04-18T12:38:21.335Z,19.5758